Terminal Aerodrome Forecast
Issued by NWS Grand Rapids, MI

Home | Current Version | Previous Version | Text Only | Print | Product List | Glossary On
Versions: 1 2 3 4 5 6 7 8 9 10 11 12 13 14 15 16 17 18 19 20 21 22 23 24
000
FTUS43 KGRR 181700
TAFGRR
TAF
KGRR 181740Z 1818/1918 30006KT P6SM SCT008 OVC015
      TEMPO 1818/1822 4SM -FZDZ BR OVC008
     FM190500 34004KT P6SM BKN040
     FM191200 VRB03KT P6SM SCT040=

USA.gov is the U.S. government's official web portal to all federal, state and local government web resources and services.